Capitol Logistics 1855

Operating for CJT



CYVR
Vancouver International Airport
Vancouver, CA
CYEG
Edmonton International Airport
Edmonton, CA

Activity Log

Date Flight Route Aircraft Duration
11/22/2021 CPX1855 ANDIE Q860 MERYT BOOTH CANUC5 B763 1h 14m
11/06/2021 CPX1855 ANDIE Q860 MERYT BOOTH CANUC5 B752 1h 14m
10/08/2021 CPX1855 VIDRI Q949 ESKIE ESKIE2 B752 1h 29m

Route Details

Aircraft Information
Group: North America Fleet
Types: B738,B752,B762,B763
Route Data
Demand: V
Distance: 437nm
Duration: 1h 19m
Recm'd Route: ANDIE Q860 MERYT BOOTH CANUC5
Origin Wx: CYVR 272138Z 14009KT 30SM FEW028 BKN078 15/11 A2993 RMK CU3ACC4 TCU ASOCTD SLP138
Dest. Wx: CYEG 272100Z 09004KT 20SM FEW068 FEW090 BKN100 BKN230 22/04 A2954 RMK CU1AC1AS5CI1 CU TR SLP007 DENSITY ALT 4100FT
Notes:

Financial History
Total Freight: 145,266lbs
Average Load: 48,422lbs/flt
Fuel Used: 31,992lbs
Avg. Fuel Used: 10,664lbs/flt
Fuel Expense: $10,132
Avg. Fuel Expense: $3,377
Avg. Fuel Cost: $0.32/lbs
Total Gross Income: $380,597
Pilot Pay: $507
Total Expenses: $51,853
Total Revenue: $318,018
Average Revenue: $126,865.64